Time;durP1;ratioP1;P1;durP2;ratioP2;P2;SDS_P1;SDS_P2;PMS_P1;PMS_P2;Temp;Humidity;BMP_temperature;BMP_pressure;BME280_temperature;BME280_humidity;BME280_pressure;Samples;Min_cycle;Max_cycle;Signal;HPM_P1;HPM_P2
2020/12/26 00:01:36;;;;;;;11.10;5.45;;;1.30;99.90;;;;;;5011467;28;20115;-75
2020/12/26 00:04:03;;;;;;;11.73;5.97;;;1.30;99.90;;;;;;5030300;28;20406;-75
2020/12/26 00:06:29;;;;;;;12.05;5.95;;;1.30;99.90;;;;;;5027043;28;20131;-75
2020/12/26 00:08:54;;;;;;;9.98;5.20;;;1.40;99.90;;;;;;5026754;28;20052;-75
2020/12/26 00:11:23;;;;;;;12.07;5.93;;;1.40;99.90;;;;;;5043255;28;20033;-75
2020/12/26 00:13:54;;;;;;;14.82;6.50;;;1.40;99.90;;;;;;5027719;28;20029;-75
2020/12/26 00:16:19;;;;;;;11.30;6.20;;;1.40;99.90;;;;;;5010508;28;20025;-75
2020/12/26 00:18:45;;;;;;;12.07;5.88;;;1.40;99.90;;;;;;5044507;28;20040;-75
2020/12/26 00:21:13;;;;;;;11.70;6.10;;;1.40;99.90;;;;;;5062178;28;20079;-75
2020/12/26 00:23:38;;;;;;;13.32;6.22;;;1.50;99.90;;;;;;5042457;28;20028;-76
2020/12/26 00:26:07;;;;;;;12.07;5.95;;;1.50;99.90;;;;;;5029275;28;20021;-75
2020/12/26 00:28:35;;;;;;;11.52;5.50;;;1.50;99.90;;;;;;5058583;28;20049;-76
2020/12/26 00:31:01;;;;;;;9.65;5.25;;;1.50;99.90;;;;;;5026385;28;20033;-75
2020/12/26 00:33:30;;;;;;;9.00;4.95;;;1.40;99.90;;;;;;5028678;28;20075;-75
2020/12/26 00:35:56;;;;;;;10.82;5.50;;;1.50;99.90;;;;;;5027372;28;20033;-75
2020/12/26 00:38:26;;;;;;;9.52;5.15;;;1.40;99.90;;;;;;5027419;28;20022;-75
2020/12/26 00:40:51;;;;;;;13.15;5.82;;;1.50;99.90;;;;;;5024165;28;20057;-75
2020/12/26 00:43:17;;;;;;;12.07;5.75;;;1.50;99.90;;;;;;5028710;28;20362;-76
2020/12/26 00:45:42;;;;;;;10.95;5.53;;;1.50;99.90;;;;;;5041964;28;20043;-75
2020/12/26 00:48:08;;;;;;;12.82;5.60;;;1.50;99.90;;;;;;5060086;28;20117;-75
2020/12/26 00:50:34;;;;;;;15.52;5.68;;;1.50;99.90;;;;;;5027728;28;20030;-75
2020/12/26 00:53:02;;;;;;;11.88;5.97;;;1.50;99.90;;;;;;5028148;28;20060;-76
2020/12/26 00:55:28;;;;;;;10.10;5.47;;;1.50;99.90;;;;;;5059904;28;20029;-75
2020/12/26 00:57:56;;;;;;;12.30;5.65;;;1.40;99.90;;;;;;5028392;28;20029;-75
2020/12/26 01:00:22;;;;;;;9.98;5.40;;;1.40;99.90;;;;;;5059693;28;20061;-75
2020/12/26 01:02:47;;;;;;;8.30;4.68;;;1.50;99.90;;;;;;5028443;28;20053;-75
2020/12/26 01:05:13;;;;;;;10.13;5.10;;;1.50;99.90;;;;;;5027263;28;20025;-75
2020/12/26 01:07:41;;;;;;;10.38;4.90;;;1.50;99.90;;;;;;5026221;28;20033;-75
2020/12/26 01:10:09;;;;;;;12.60;5.60;;;1.50;99.90;;;;;;5028259;28;20037;-75
2020/12/26 01:12:35;;;;;;;11.68;5.80;;;1.50;99.90;;;;;;5028429;28;20021;-75
2020/12/26 01:15:00;;;;;;;11.98;5.97;;;1.50;99.90;;;;;;5029483;28;20032;-75
2020/12/26 01:17:28;;;;;;;11.13;5.50;;;1.50;99.90;;;;;;5026327;28;20092;-75
2020/12/26 01:19:58;;;;;;;13.10;6.25;;;1.60;99.90;;;;;;5059424;28;20641;-75
2020/12/26 01:22:24;;;;;;;11.07;5.47;;;1.50;99.90;;;;;;5027175;28;20030;-75
2020/12/26 01:24:52;;;;;;;11.27;5.80;;;1.50;99.90;;;;;;5028262;28;20093;-75
2020/12/26 01:27:21;;;;;;;11.98;6.28;;;1.50;99.90;;;;;;5027325;28;20041;-75
2020/12/26 01:29:51;;;;;;;11.15;6.03;;;1.50;99.90;;;;;;5027946;28;20382;-75
2020/12/26 01:32:17;;;;;;;12.02;6.30;;;1.50;99.90;;;;;;5027020;28;20041;-75
2020/12/26 01:34:47;;;;;;;12.13;6.07;;;1.50;99.90;;;;;;5026036;28;20021;-75
2020/12/26 01:37:13;;;;;;;14.00;6.47;;;1.50;99.90;;;;;;5058632;28;20022;-75
2020/12/26 01:39:38;;;;;;;14.95;6.68;;;1.50;99.90;;;;;;5027793;28;20056;-75
2020/12/26 01:42:06;;;;;;;13.35;6.80;;;1.40;99.90;;;;;;5028073;28;20458;-75
2020/12/26 01:44:36;;;;;;;14.00;7.10;;;1.50;99.90;;;;;;5027077;28;20098;-75
2020/12/26 01:47:02;;;;;;;12.80;7.28;;;1.40;99.90;;;;;;5043706;28;20032;-75
2020/12/26 01:49:27;;;;;;;13.13;6.18;;;1.40;99.90;;;;;;5027050;28;20037;-75
2020/12/26 01:51:53;;;;;;;13.68;7.32;;;1.40;99.90;;;;;;5060100;28;20661;-75
2020/12/26 01:54:19;;;;;;;12.68;7.03;;;1.40;99.90;;;;;;5027664;28;20482;-75
2020/12/26 01:56:47;;;;;;;13.80;7.18;;;1.40;99.90;;;;;;5028066;28;20033;-75
2020/12/26 01:59:13;;;;;;;14.18;6.95;;;1.40;99.90;;;;;;5028088;28;20034;-76
2020/12/26 02:01:40;;;;;;;14.10;7.03;;;1.40;99.90;;;;;;5059915;28;20033;-75
2020/12/26 02:04:06;;;;;;;13.07;6.75;;;1.40;99.90;;;;;;5060656;28;20032;-75
2020/12/26 02:06:46;;;;;;;11.80;6.03;;;1.40;99.90;;;;;;5025650;28;20367;-75
2020/12/26 02:09:14;;;;;;;10.23;5.68;;;1.50;99.90;;;;;;5026434;28;20650;-75
2020/12/26 02:11:42;;;;;;;12.48;6.82;;;1.50;99.90;;;;;;5026656;28;20392;-76
2020/12/26 02:14:11;;;;;;;14.23;7.25;;;1.50;99.90;;;;;;5025867;28;20049;-75
2020/12/26 02:16:50;;;;;;;13.75;6.65;;;1.50;99.90;;;;;;5027179;28;20714;-76
2020/12/26 02:19:20;;;;;;;15.55;7.18;;;1.50;99.90;;;;;;5060061;28;20017;-76
2020/12/26 02:21:49;;;;;;;12.05;7.07;;;1.60;99.90;;;;;;5025821;28;20026;-76
2020/12/26 02:24:14;;;;;;;12.73;6.25;;;1.50;99.90;;;;;;5041561;28;20025;-76
2020/12/26 02:26:40;;;;;;;11.77;6.00;;;1.60;99.90;;;;;;5059677;28;20032;-76
2020/12/26 02:29:06;;;;;;;15.50;7.05;;;1.60;99.90;;;;;;5027506;28;20052;-75
2020/12/26 02:31:32;;;;;;;12.32;6.78;;;1.60;99.90;;;;;;5026265;28;20037;-76
2020/12/26 02:34:00;;;;;;;12.88;6.10;;;1.60;99.90;;;;;;5059034;28;20033;-76
2020/12/26 02:36:28;;;;;;;13.55;7.38;;;1.60;99.90;;;;;;5025907;28;20086;-77
2020/12/26 02:38:57;;;;;;;13.10;7.20;;;1.60;99.90;;;;;;5039979;28;20024;-76
2020/12/26 02:41:22;;;;;;;14.65;7.38;;;1.70;99.90;;;;;;5025890;28;20047;-76
2020/12/26 02:43:50;;;;;;;13.45;7.20;;;1.70;99.90;;;;;;5026869;28;20030;-76
2020/12/26 02:46:16;;;;;;;12.25;7.43;;;1.70;99.90;;;;;;5025256;28;20030;-77
2020/12/26 02:48:41;;;;;;;15.00;7.53;;;1.70;99.90;;;;;;5026782;28;20100;-77
2020/12/26 02:51:09;;;;;;;17.52;7.95;;;1.80;99.90;;;;;;5026940;28;20672;-77
2020/12/26 02:53:35;;;;;;;13.75;7.60;;;1.80;99.90;;;;;;5026530;28;20029;-76
2020/12/26 02:56:01;;;;;;;12.43;7.63;;;1.80;99.90;;;;;;5026898;28;20034;-77
2020/12/26 02:58:31;;;;;;;13.05;7.40;;;1.80;99.90;;;;;;5027102;28;20030;-76
2020/12/26 03:00:57;;;;;;;15.85;8.43;;;1.80;99.90;;;;;;5059802;28;20079;-77
2020/12/26 03:03:23;;;;;;;14.73;7.57;;;1.90;99.90;;;;;;5027162;28;20041;-77
2020/12/26 03:05:48;;;;;;;16.55;9.18;;;1.90;99.90;;;;;;5028008;28;20068;-76
2020/12/26 03:08:14;;;;;;;16.98;8.82;;;1.90;99.90;;;;;;5026479;28;20042;-74
2020/12/26 03:10:42;;;;;;;16.30;8.15;;;2.00;99.90;;;;;;5053299;28;20522;-74
2020/12/26 03:13:10;;;;;;;16.92;8.55;;;2.00;99.90;;;;;;5025874;28;20097;-74
2020/12/26 03:15:36;;;;;;;15.35;8.43;;;2.00;99.90;;;;;;5019230;28;20040;-74
2020/12/26 03:18:01;;;;;;;15.70;8.98;;;2.10;99.90;;;;;;5013022;28;20029;-74
2020/12/26 03:20:27;;;;;;;15.65;8.95;;;2.10;99.90;;;;;;5031562;28;20030;-74
2020/12/26 03:22:57;;;;;;;17.48;9.10;;;2.10;99.90;;;;;;5013705;28;20029;-74
2020/12/26 03:25:23;;;;;;;17.48;9.30;;;2.20;99.90;;;;;;5013116;28;20036;-74
2020/12/26 03:27:49;;;;;;;18.75;9.23;;;2.20;99.90;;;;;;5012870;28;20030;-74
2020/12/26 03:30:15;;;;;;;18.48;10.48;;;2.20;99.90;;;;;;5013042;28;20041;-74
2020/12/26 03:32:40;;;;;;;16.05;9.63;;;2.30;99.90;;;;;;5044035;28;20578;-74
2020/12/26 03:35:06;;;;;;;19.17;10.00;;;2.20;99.90;;;;;;5011761;28;20410;-74
2020/12/26 03:37:34;;;;;;;16.40;9.23;;;2.30;99.90;;;;;;5012930;28;20132;-74
2020/12/26 03:40:04;;;;;;;14.00;9.05;;;2.30;99.90;;;;;;5013559;28;20064;-74
2020/12/26 03:42:34;;;;;;;15.48;9.40;;;2.30;99.90;;;;;;5046121;28;20029;-74
2020/12/26 03:45:05;;;;;;;19.38;10.13;;;2.40;99.90;;;;;;5015267;28;20375;-74
2020/12/26 03:47:30;;;;;;;21.17;10.07;;;2.40;99.90;;;;;;5017835;28;20482;-74
2020/12/26 03:49:56;;;;;;;16.17;9.75;;;2.40;99.90;;;;;;5030217;28;20041;-74
2020/12/26 03:52:21;;;;;;;15.57;9.07;;;2.40;99.90;;;;;;5016012;28;20037;-74
2020/12/26 03:54:49;;;;;;;19.30;10.63;;;2.50;99.90;;;;;;5015656;28;20038;-74
2020/12/26 03:57:15;;;;;;;17.02;9.90;;;2.60;99.90;;;;;;5013135;28;20026;-74
2020/12/26 03:59:41;;;;;;;17.17;9.38;;;2.60;99.90;;;;;;5014563;28;20068;-74
2020/12/26 04:02:07;;;;;;;18.33;10.98;;;2.60;99.90;;;;;;5015602;28;20029;-74
2020/12/26 04:04:35;;;;;;;17.30;9.95;;;2.70;99.90;;;;;;5015626;28;20481;-74
2020/12/26 04:07:01;;;;;;;16.67;9.82;;;2.70;99.90;;;;;;5015809;28;20025;-74
2020/12/26 04:09:27;;;;;;;17.35;10.10;;;2.70;99.90;;;;;;5029973;28;20029;-73
2020/12/26 04:11:54;;;;;;;16.67;10.05;;;2.70;99.90;;;;;;5046858;28;20364;-74
2020/12/26 04:14:22;;;;;;;16.30;10.05;;;2.70;99.90;;;;;;5015583;28;20045;-73
2020/12/26 04:16:49;;;;;;;17.48;9.98;;;2.70;99.90;;;;;;5013547;28;20057;-73
2020/12/26 04:19:17;;;;;;;17.42;9.52;;;2.80;99.90;;;;;;5028837;28;20438;-73
2020/12/26 04:21:45;;;;;;;16.45;9.93;;;2.80;99.90;;;;;;5015242;28;20340;-73
2020/12/26 04:24:11;;;;;;;15.38;8.90;;;2.80;99.90;;;;;;5015919;28;20061;-73
2020/12/26 04:26:36;;;;;;;18.05;10.35;;;2.80;99.90;;;;;;5015926;28;20411;-73
2020/12/26 04:29:06;;;;;;;15.07;9.60;;;2.90;99.90;;;;;;5014794;28;20557;-73
2020/12/26 04:31:35;;;;;;;16.40;9.38;;;2.90;99.90;;;;;;5046769;28;20022;-73
2020/12/26 04:34:00;;;;;;;15.95;9.27;;;2.90;99.90;;;;;;5047000;28;20033;-73
2020/12/26 04:36:26;;;;;;;16.63;9.00;;;2.90;99.90;;;;;;5012133;28;20466;-73
2020/12/26 04:38:52;;;;;;;12.98;8.77;;;2.90;99.90;;;;;;5015517;28;20033;-73
2020/12/26 04:41:18;;;;;;;14.52;8.45;;;2.80;99.90;;;;;;5047937;28;20029;-73
2020/12/26 04:43:44;;;;;;;13.98;8.75;;;2.90;99.90;;;;;;5028473;28;20475;-73
2020/12/26 04:46:17;;;;;;;16.80;8.55;;;2.90;99.90;;;;;;5015215;28;20041;-73
2020/12/26 04:48:56;;;;;;;16.17;8.98;;;2.90;99.90;;;;;;5015001;28;20079;-73
2020/12/26 04:51:21;;;;;;;13.55;8.38;;;2.90;99.90;;;;;;5015467;28;20123;-73
2020/12/26 04:53:49;;;;;;;15.25;8.35;;;2.90;99.90;;;;;;5045543;28;20030;-73
2020/12/26 04:56:15;;;;;;;15.50;8.90;;;2.90;99.90;;;;;;5047110;28;20156;-73
2020/12/26 04:58:44;;;;;;;14.90;8.52;;;2.90;99.90;;;;;;5028659;28;20036;-73
2020/12/26 05:01:09;;;;;;;13.18;7.93;;;2.90;99.90;;;;;;5033965;28;20072;-72
2020/12/26 05:03:37;;;;;;;14.55;8.30;;;2.90;99.90;;;;;;5028660;28;20030;-73
2020/12/26 05:06:04;;;;;;;12.90;8.10;;;2.90;99.90;;;;;;5046027;28;20144;-73
2020/12/26 05:08:30;;;;;;;12.32;7.97;;;2.90;99.90;;;;;;5014325;28;20068;-73
2020/12/26 05:10:56;;;;;;;12.63;8.32;;;2.90;99.90;;;;;;5015308;28;20050;-73
2020/12/26 05:13:22;;;;;;;13.93;8.43;;;2.90;99.90;;;;;;5004646;28;21491;-73
2020/12/26 05:15:50;;;;;;;16.05;9.07;;;2.90;99.90;;;;;;5015003;28;20576;-72
2020/12/26 05:18:18;;;;;;;12.48;7.88;;;2.90;99.90;;;;;;5046401;28;20501;-72
2020/12/26 05:20:44;;;;;;;16.70;8.27;;;3.00;99.90;;;;;;5020739;28;20095;-72
2020/12/26 05:23:16;;;;;;;11.40;7.28;;;3.00;99.90;;;;;;5046719;28;20029;-72
2020/12/26 05:25:46;;;;;;;11.48;7.53;;;3.00;99.90;;;;;;5047336;28;20121;-72
2020/12/26 05:28:15;;;;;;;13.30;7.35;;;3.00;99.90;;;;;;5014718;28;20025;-73
2020/12/26 05:30:44;;;;;;;13.52;8.15;;;3.10;99.90;;;;;;5014838;28;20044;-73
2020/12/26 05:33:10;;;;;;;13.82;7.57;;;3.00;99.90;;;;;;5015210;28;20061;-72
2020/12/26 05:36:06;;;;;;;12.43;7.78;;;3.00;99.90;;;;;;5014533;28;20052;-72
2020/12/26 05:38:31;;;;;;;12.65;7.78;;;3.10;99.90;;;;;;5044104;28;20036;-73
2020/12/26 05:41:03;;;;;;;13.20;7.88;;;3.10;99.90;;;;;;5013566;28;20037;-72
2020/12/26 05:43:30;;;;;;;10.43;6.05;;;3.00;99.90;;;;;;5046287;28;20048;-72
2020/12/26 05:45:56;;;;;;;12.32;7.75;;;3.00;99.90;;;;;;5014649;28;20042;-72
2020/12/26 05:48:25;;;;;;;13.77;7.60;;;3.00;99.90;;;;;;5013928;28;20419;-73
2020/12/26 05:50:57;;;;;;;14.27;8.00;;;3.00;99.90;;;;;;5044738;28;20061;-73
2020/12/26 05:53:27;;;;;;;17.17;8.02;;;3.10;99.90;;;;;;5046564;28;20091;-72
2020/12/26 05:55:53;;;;;;;15.13;8.52;;;3.00;99.90;;;;;;5027893;28;20032;-72
2020/12/26 05:58:22;;;;;;;16.63;8.75;;;3.00;99.90;;;;;;5045189;28;20025;-73
2020/12/26 06:00:48;;;;;;;15.48;8.02;;;3.00;99.90;;;;;;5013481;28;20052;-72
2020/12/26 06:03:37;;;;;;;13.65;7.80;;;3.00;99.90;;;;;;5013987;28;20033;-72
2020/12/26 06:06:04;;;;;;;11.23;7.20;;;3.00;99.90;;;;;;5014294;28;20037;-72
2020/12/26 06:08:34;;;;;;;11.75;6.97;;;3.10;99.90;;;;;;5014020;28;20072;-73
2020/12/26 06:11:04;;;;;;;14.07;6.80;;;3.10;99.90;;;;;;5043743;28;20049;-72
2020/12/26 06:13:31;;;;;;;13.23;6.95;;;3.10;99.90;;;;;;5027415;28;20044;-72
2020/12/26 06:16:16;;;;;;;10.88;6.72;;;2.90;99.90;;;;;;5044889;28;20149;-72
2020/12/26 06:18:59;;;;;;;13.38;7.15;;;3.00;99.90;;;;;;5027679;28;20087;-72
2020/12/26 06:21:25;;;;;;;11.77;7.15;;;3.10;99.90;;;;;;5015960;28;20034;-72
2020/12/26 06:23:51;;;;;;;13.30;6.68;;;3.10;99.90;;;;;;5013101;28;20087;-73
2020/12/26 06:26:20;;;;;;;10.10;6.22;;;3.10;99.90;;;;;;5045870;28;20030;-73
2020/12/26 06:28:46;;;;;;;11.55;6.25;;;3.10;99.90;;;;;;5026755;28;20075;-72
2020/12/26 06:31:12;;;;;;;10.40;5.55;;;3.20;99.90;;;;;;5015224;28;20045;-73
2020/12/26 06:33:42;;;;;;;12.45;6.32;;;3.10;99.90;;;;;;5027265;28;20100;-73
2020/12/26 06:36:10;;;;;;;9.55;5.43;;;3.10;99.90;;;;;;5045111;28;20037;-72
2020/12/26 06:38:40;;;;;;;10.40;5.55;;;3.10;99.90;;;;;;5013608;28;20036;-72
2020/12/26 06:41:14;;;;;;;11.18;5.85;;;3.10;99.90;;;;;;5013200;28;20547;-73
2020/12/26 06:43:40;;;;;;;11.85;5.80;;;3.20;99.90;;;;;;5013446;28;20048;-72
2020/12/26 06:46:14;;;;;;;11.25;5.13;;;3.20;99.90;;;;;;5012401;28;20029;-72
2020/12/26 06:48:40;;;;;;;8.60;5.60;;;3.10;99.90;;;;;;5013058;28;20044;-72
2020/12/26 06:51:24;;;;;;;10.70;5.53;;;3.20;99.90;;;;;;5044684;28;20114;-72
2020/12/26 06:53:54;;;;;;;9.18;5.40;;;3.20;99.90;;;;;;5027264;28;20062;-72
2020/12/26 06:56:35;;;;;;;9.43;5.47;;;3.20;99.90;;;;;;5026691;28;20026;-71
2020/12/26 06:59:04;;;;;;;10.65;6.35;;;3.20;99.90;;;;;;5026960;28;20141;-71
2020/12/26 07:01:33;;;;;;;12.55;6.45;;;3.20;99.90;;;;;;5046583;28;20053;-71
2020/12/26 07:04:10;;;;;;;13.48;7.13;;;3.20;99.90;;;;;;5014206;28;20026;-72
2020/12/26 07:06:55;;;;;;;10.43;6.13;;;3.10;99.90;;;;;;5027686;28;20045;-71
2020/12/26 07:09:47;;;;;;;8.85;4.97;;;3.10;99.90;;;;;;5014150;28;20030;-71
2020/12/26 07:12:13;;;;;;;10.90;5.40;;;3.10;99.90;;;;;;5009173;28;20117;-72
2020/12/26 07:14:45;;;;;;;7.55;4.18;;;3.10;99.90;;;;;;5013704;28;20032;-72
2020/12/26 07:17:13;;;;;;;5.22;3.10;;;3.00;99.90;;;;;;5014397;28;20116;-72
2020/12/26 07:19:42;;;;;;;7.30;3.78;;;3.00;99.90;;;;;;5016381;28;20033;-72
2020/12/26 07:22:33;;;;;;;7.45;3.50;;;2.90;99.90;;;;;;5016173;28;20033;-72
2020/12/26 07:25:02;;;;;;;6.00;3.42;;;2.80;99.90;;;;;;5004610;28;20045;-72
2020/12/26 07:27:36;;;;;;;6.63;3.70;;;2.80;99.90;;;;;;5017518;28;20743;-72
2020/12/26 07:30:20;;;;;;;6.32;3.22;;;2.80;99.90;;;;;;5038757;28;20478;-73
2020/12/26 07:32:54;;;;;;;6.38;3.72;;;2.90;99.90;;;;;;5016852;28;20723;-72
2020/12/26 07:35:23;;;;;;;7.30;4.05;;;2.80;99.90;;;;;;5048367;28;20029;-72
2020/12/26 07:37:57;;;;;;;8.63;4.55;;;2.80;99.90;;;;;;5016498;28;20025;-72
2020/12/26 07:40:38;;;;;;;11.23;6.22;;;2.80;99.90;;;;;;5047701;28;20481;-72
2020/12/26 07:43:05;;;;;;;12.15;6.15;;;2.80;99.90;;;;;;5016563;28;20033;-72
2020/12/26 07:45:31;;;;;;;9.43;6.18;;;2.80;99.90;;;;;;5030581;28;21987;-73
2020/12/26 07:47:58;;;;;;;12.52;6.43;;;2.80;99.90;;;;;;5029775;28;20141;-72
2020/12/26 07:50:25;;;;;;;9.55;5.22;;;2.80;99.90;;;;;;5015146;28;20026;-72
2020/12/26 07:53:01;;;;;;;9.27;5.60;;;2.80;99.90;;;;;;5049161;28;20030;-72
2020/12/26 07:55:27;;;;;;;12.13;6.40;;;2.70;99.90;;;;;;5016221;28;20025;-72
2020/12/26 07:58:08;;;;;;;11.85;7.07;;;2.80;99.90;;;;;;5018892;28;20029;-72
2020/12/26 08:00:36;;;;;;;13.88;7.10;;;2.80;99.90;;;;;;5016694;28;20150;-72
2020/12/26 08:03:03;;;;;;;14.50;7.53;;;2.80;99.90;;;;;;5015773;28;20045;-72
2020/12/26 08:05:30;;;;;;;13.00;7.38;;;2.80;99.90;;;;;;5016098;28;20366;-72
2020/12/26 08:07:58;;;;;;;14.48;7.60;;;2.80;99.90;;;;;;5016096;28;20029;-72
2020/12/26 08:10:24;;;;;;;13.05;7.25;;;2.80;99.90;;;;;;5018163;28;20064;-72
2020/12/26 08:12:57;;;;;;;12.93;7.15;;;2.80;99.90;;;;;;5015839;28;20510;-72
2020/12/26 08:15:29;;;;;;;15.60;7.38;;;2.90;99.90;;;;;;5015795;28;20119;-73
2020/12/26 08:17:59;;;;;;;14.38;7.25;;;2.90;99.90;;;;;;5034092;28;20029;-72
2020/12/26 08:20:26;;;;;;;9.82;5.90;;;2.90;99.90;;;;;;5016859;28;20033;-73
2020/12/26 08:22:52;;;;;;;11.32;6.70;;;2.90;99.90;;;;;;5047109;28;20033;-72
2020/12/26 08:25:23;;;;;;;11.50;6.57;;;2.80;99.90;;;;;;5015546;28;20044;-73
2020/12/26 08:27:49;;;;;;;12.68;7.43;;;2.80;99.90;;;;;;5045176;28;20184;-72
2020/12/26 08:30:35;;;;;;;14.80;7.22;;;2.80;99.90;;;;;;5029131;28;20033;-72
2020/12/26 08:33:13;;;;;;;12.90;6.80;;;2.80;99.90;;;;;;5041420;28;20107;-72
2020/12/26 08:35:52;;;;;;;16.13;7.32;;;2.80;99.90;;;;;;5015360;28;20064;-72
2020/12/26 08:38:21;;;;;;;12.25;6.70;;;2.80;99.90;;;;;;5047072;28;20057;-73
2020/12/26 08:40:53;;;;;;;11.68;6.70;;;2.70;99.90;;;;;;5047564;28;20040;-72
2020/12/26 08:43:20;;;;;;;11.98;6.38;;;2.80;99.90;;;;;;5029579;28;20340;-72
2020/12/26 08:45:46;;;;;;;13.65;6.93;;;2.80;99.90;;;;;;5015247;28;20037;-72
2020/12/26 08:48:15;;;;;;;9.65;4.95;;;2.80;99.90;;;;;;5021921;28;20452;-72
2020/12/26 08:50:56;;;;;;;10.55;6.05;;;2.80;99.90;;;;;;5045222;28;21847;-72
2020/12/26 08:53:24;;;;;;;12.35;6.43;;;2.90;99.90;;;;;;5043653;28;20064;-72
2020/12/26 08:55:53;;;;;;;13.10;5.78;;;2.90;99.90;;;;;;5046552;28;20068;-72
2020/12/26 08:58:23;;;;;;;12.00;7.25;;;2.90;99.90;;;;;;5030034;28;20496;-72
2020/12/26 09:00:49;;;;;;;12.98;6.43;;;2.90;99.90;;;;;;5046413;28;20040;-72
2020/12/26 09:03:28;;;;;;;10.52;5.60;;;2.90;99.90;;;;;;5028709;28;20037;-73
2020/12/26 09:05:56;;;;;;;12.82;5.45;;;2.90;99.90;;;;;;5046441;28;20056;-72
2020/12/26 09:08:36;;;;;;;8.93;5.38;;;3.00;99.90;;;;;;5017520;28;20581;-72
2020/12/26 09:11:03;;;;;;;10.13;4.85;;;3.00;99.90;;;;;;5036334;28;20830;-72
2020/12/26 09:13:37;;;;;;;10.35;4.78;;;3.00;99.90;;;;;;5014258;28;20029;-72
2020/12/26 09:16:06;;;;;;;8.75;4.82;;;3.10;99.90;;;;;;5015392;28;20014;-73
2020/12/26 09:19:01;;;;;;;9.35;4.60;;;3.10;99.90;;;;;;5014932;28;20390;-72
2020/12/26 09:21:27;;;;;;;10.13;4.80;;;3.20;99.90;;;;;;5013811;28;20051;-72
2020/12/26 09:23:57;;;;;;;8.80;4.78;;;3.10;99.90;;;;;;5027524;28;20036;-72
2020/12/26 09:26:29;;;;;;;9.50;4.90;;;3.20;99.90;;;;;;5014042;28;20068;-72
2020/12/26 09:28:59;;;;;;;7.68;4.30;;;3.10;99.90;;;;;;5031984;28;20425;-72
2020/12/26 09:31:26;;;;;;;10.00;4.35;;;3.20;99.90;;;;;;5016155;28;20033;-72
2020/12/26 09:33:53;;;;;;;9.25;4.18;;;3.20;99.90;;;;;;5020512;28;20112;-72
2020/12/26 09:36:20;;;;;;;10.85;4.40;;;3.20;99.90;;;;;;5045479;28;20030;-73
2020/12/26 09:38:48;;;;;;;9.90;4.07;;;3.30;99.90;;;;;;5046595;28;20034;-72
2020/12/26 09:41:23;;;;;;;8.40;3.65;;;3.20;99.90;;;;;;5013102;28;20025;-72
2020/12/26 09:43:53;;;;;;;7.10;4.03;;;3.30;99.90;;;;;;5045786;28;20041;-71
2020/12/26 09:46:19;;;;;;;7.47;4.10;;;3.30;99.90;;;;;;5015571;28;20033;-72
2020/12/26 09:48:47;;;;;;;10.23;3.90;;;3.40;99.90;;;;;;5011399;28;20564;-71
2020/12/26 09:51:15;;;;;;;7.72;4.20;;;3.40;99.90;;;;;;5044603;28;20033;-70
2020/12/26 09:53:41;;;;;;;8.20;4.03;;;3.50;99.90;;;;;;5045793;28;20029;-70
2020/12/26 09:56:07;;;;;;;8.95;4.65;;;3.50;99.90;;;;;;5014132;28;20036;-71
2020/12/26 09:58:35;;;;;;;9.73;4.00;;;3.50;99.90;;;;;;5027625;28;20418;-70
2020/12/26 10:01:03;;;;;;;7.30;3.90;;;3.50;99.90;;;;;;5013566;28;20044;-71
2020/12/26 10:03:29;;;;;;;8.82;4.20;;;3.60;99.90;;;;;;5012582;28;20525;-70
2020/12/26 10:05:55;;;;;;;8.52;4.10;;;3.60;99.90;;;;;;5013207;28;20041;-70
2020/12/26 10:08:20;;;;;;;8.07;4.10;;;3.70;99.90;;;;;;5039099;28;20332;-71
2020/12/26 10:10:49;;;;;;;8.48;4.20;;;3.70;99.90;;;;;;5027218;28;20049;-71
2020/12/26 10:13:15;;;;;;;8.18;4.10;;;3.70;99.90;;;;;;5027482;28;20071;-70
2020/12/26 10:15:43;;;;;;;8.02;4.35;;;3.80;99.90;;;;;;5024905;28;20038;-71
2020/12/26 10:18:08;;;;;;;10.25;5.00;;;3.80;99.90;;;;;;5026510;28;20036;-70
2020/12/26 10:20:37;;;;;;;10.82;5.75;;;3.90;99.90;;;;;;5027585;28;20034;-70
2020/12/26 10:23:05;;;;;;;12.20;5.97;;;3.90;99.90;;;;;;5027180;28;20040;-71
2020/12/26 10:25:31;;;;;;;12.43;6.90;;;3.90;99.90;;;;;;5025003;28;20072;-70
2020/12/26 10:27:59;;;;;;;13.90;6.55;;;4.00;99.90;;;;;;5025691;28;20428;-70
2020/12/26 10:30:27;;;;;;;13.52;6.75;;;4.00;99.90;;;;;;5025340;28;20036;-70
2020/12/26 10:32:53;;;;;;;10.70;6.40;;;4.00;99.90;;;;;;5025821;28;20106;-70
2020/12/26 10:35:19;;;;;;;13.55;6.82;;;4.00;99.90;;;;;;5026036;28;20021;-70
2020/12/26 10:37:44;;;;;;;11.23;6.18;;;4.10;99.90;;;;;;5025783;28;20049;-70
2020/12/26 10:40:12;;;;;;;11.02;6.20;;;4.10;99.90;;;;;;5024745;28;20048;-70
2020/12/26 10:42:41;;;;;;;11.02;5.85;;;4.00;99.90;;;;;;5039058;28;20037;-70
2020/12/26 10:45:08;;;;;;;10.77;5.95;;;4.10;99.90;;;;;;5026172;28;20072;-71
2020/12/26 10:47:34;;;;;;;12.23;6.07;;;4.10;99.90;;;;;;5026739;28;20029;-70
2020/12/26 10:50:00;;;;;;;10.00;5.82;;;4.10;99.90;;;;;;5026545;28;20497;-70
2020/12/26 10:52:25;;;;;;;12.32;6.75;;;4.10;99.90;;;;;;5026007;28;20033;-71
2020/12/26 10:54:51;;;;;;;11.48;6.53;;;4.10;99.90;;;;;;5016660;28;20029;-70
2020/12/26 10:57:17;;;;;;;13.68;7.10;;;4.10;99.90;;;;;;5031475;28;20610;-70
2020/12/26 10:59:42;;;;;;;12.10;7.10;;;4.00;99.90;;;;;;5050092;28;20057;-70
2020/12/26 11:02:08;;;;;;;14.25;6.93;;;4.10;99.90;;;;;;5019386;28;20037;-70
2020/12/26 11:04:36;;;;;;;14.40;7.07;;;4.10;99.90;;;;;;5021491;28;20025;-77
2020/12/26 11:07:02;;;;;;;13.63;7.40;;;4.00;99.90;;;;;;5030365;28;20148;-70
2020/12/26 11:09:34;;;;;;;12.27;7.68;;;4.00;99.90;;;;;;5028799;28;20951;-70
2020/12/26 11:12:01;;;;;;;12.43;7.70;;;4.00;99.90;;;;;;5021679;28;20055;-74
2020/12/26 11:14:29;;;;;;;12.23;7.80;;;4.10;99.90;;;;;;5011723;28;20061;-75
2020/12/26 11:16:55;;;;;;;13.52;8.15;;;4.10;99.90;;;;;;5052630;28;20033;-75
2020/12/26 11:19:21;;;;;;;13.85;7.63;;;4.10;99.90;;;;;;5030644;28;20088;-75
2020/12/26 11:21:53;;;;;;;14.30;7.97;;;4.10;99.90;;;;;;5031248;28;20033;-75
2020/12/26 11:24:21;;;;;;;;;;;4.10;99.90;;;;;;5049681;28;20045;-75
2020/12/26 11:26:47;;;;;;;15.57;8.05;;;4.00;99.90;;;;;;5030852;28;19918;-75
2020/12/26 11:29:20;;;;;;;14.45;7.93;;;4.00;99.90;;;;;;5049829;28;20351;-75
2020/12/26 11:31:48;;;;;;;13.88;7.72;;;4.00;99.90;;;;;;5047890;28;20044;-75
2020/12/26 11:34:14;;;;;;;15.38;8.07;;;4.00;99.90;;;;;;5015558;28;20045;-75
2020/12/26 11:36:42;;;;;;;13.88;8.25;;;4.00;99.90;;;;;;5015189;28;20108;-75
2020/12/26 11:39:10;;;;;;;15.25;7.88;;;4.00;99.90;;;;;;5016307;28;20046;-76
2020/12/26 11:41:35;;;;;;;14.00;8.20;;;4.00;99.90;;;;;;5048550;28;20155;-75
2020/12/26 11:44:01;;;;;;;16.30;9.02;;;4.00;99.90;;;;;;5015906;28;20035;-75
2020/12/26 11:46:31;;;;;;;12.75;8.68;;;4.10;99.90;;;;;;5038592;28;20042;-75
2020/12/26 11:49:01;;;;;;;13.13;8.15;;;4.00;99.90;;;;;;5030796;28;20037;-76
2020/12/26 11:51:27;;;;;;;14.27;8.93;;;4.10;99.90;;;;;;5047309;28;22290;-75
2020/12/26 11:53:52;;;;;;;15.98;8.40;;;4.10;99.90;;;;;;5035161;28;20038;-75
2020/12/26 11:56:18;;;;;;;15.40;8.65;;;4.10;99.90;;;;;;5015583;28;20083;-75
2020/12/26 11:58:48;;;;;;;13.43;8.30;;;4.10;99.90;;;;;;5046987;28;20452;-75
2020/12/26 12:01:18;;;;;;;17.02;8.70;;;4.10;99.90;;;;;;5015849;28;20026;-75
2020/12/26 12:03:47;;;;;;;14.80;8.70;;;4.10;99.90;;;;;;5046714;28;20387;-76
2020/12/26 12:06:13;;;;;;;16.20;8.77;;;4.10;99.90;;;;;;5017759;28;20037;-75
2020/12/26 12:08:41;;;;;;;15.70;8.82;;;3.90;99.90;;;;;;5047895;28;20021;-75
2020/12/26 12:11:08;;;;;;;16.48;8.45;;;3.90;99.90;;;;;;5015726;28;20046;-75
2020/12/26 12:13:36;;;;;;;15.20;8.77;;;3.90;99.90;;;;;;5048668;28;20044;-76
2020/12/26 12:16:04;;;;;;;14.43;8.25;;;4.00;99.90;;;;;;5030176;28;20057;-75
2020/12/26 12:18:30;;;;;;;15.90;8.65;;;3.90;99.90;;;;;;5029305;28;20064;-75
2020/12/26 12:20:58;;;;;;;13.32;8.40;;;3.90;99.90;;;;;;5016610;28;20470;-75
2020/12/26 12:23:26;;;;;;;13.38;8.52;;;3.90;99.90;;;;;;5014814;28;20049;-76
2020/12/26 12:25:51;;;;;;;16.38;8.77;;;3.80;99.90;;;;;;5017660;28;20029;-75
2020/12/26 12:28:17;;;;;;;14.95;8.38;;;3.80;99.90;;;;;;5015443;28;20042;-75
2020/12/26 12:30:47;;;;;;;15.57;9.77;;;3.80;99.90;;;;;;5014917;28;20034;-75
2020/12/26 12:33:13;;;;;;;15.10;8.65;;;3.80;99.90;;;;;;5015754;28;20026;-75
2020/12/26 12:35:39;;;;;;;13.15;8.07;;;3.80;99.90;;;;;;5045855;28;20045;-75
2020/12/26 12:38:06;;;;;;;14.70;8.50;;;3.80;99.90;;;;;;5016628;28;20037;-75
2020/12/26 12:40:34;;;;;;;14.20;8.90;;;3.80;99.90;;;;;;5028991;28;20127;-75
2020/12/26 12:43:00;;;;;;;14.55;8.88;;;3.80;99.90;;;;;;5045932;28;20459;-75
2020/12/26 12:45:31;;;;;;;14.32;8.65;;;3.80;99.90;;;;;;5015382;28;20206;-75
2020/12/26 12:47:56;;;;;;;13.63;8.02;;;3.90;99.90;;;;;;5045641;28;20029;-75
2020/12/26 12:50:24;;;;;;;17.50;9.18;;;3.90;99.90;;;;;;5015632;28;20102;-77
2020/12/26 12:52:52;;;;;;;14.75;9.10;;;3.80;99.90;;;;;;5014774;28;20563;-76
2020/12/26 12:55:18;;;;;;;14.07;8.52;;;3.80;99.90;;;;;;5014449;28;20030;-75